sensor_id;sensor_type;location;lat;lon;timestamp;P1;durP1;ratioP1;P2;durP2;ratioP2
41653;SDS011;68687;52.030;7.110;2023-04-28T00:02:11;10.45;;;7.38;;
41653;SDS011;68687;52.030;7.110;2023-04-28T00:04:37;13.68;;;6.80;;
41653;SDS011;68687;52.030;7.110;2023-04-28T00:07:02;11.05;;;7.28;;
41653;SDS011;68687;52.030;7.110;2023-04-28T00:09:27;8.90;;;6.90;;
41653;SDS011;68687;52.030;7.110;2023-04-28T00:11:53;18.38;;;7.10;;
41653;SDS011;68687;52.030;7.110;2023-04-28T00:14:21;10.48;;;7.47;;
41653;SDS011;68687;52.030;7.110;2023-04-28T00:16:49;9.60;;;7.45;;
41653;SDS011;68687;52.030;7.110;2023-04-28T00:19:14;10.52;;;7.30;;
41653;SDS011;68687;52.030;7.110;2023-04-28T00:21:40;11.43;;;7.50;;
41653;SDS011;68687;52.030;7.110;2023-04-28T00:24:05;8.70;;;7.78;;
41653;SDS011;68687;52.030;7.110;2023-04-28T00:26:31;8.13;;;7.00;;
41653;SDS011;68687;52.030;7.110;2023-04-28T00:28:56;10.57;;;7.47;;
41653;SDS011;68687;52.030;7.110;2023-04-28T00:31:21;10.90;;;7.32;;
41653;SDS011;68687;52.030;7.110;2023-04-28T00:33:46;10.10;;;7.35;;
41653;SDS011;68687;52.030;7.110;2023-04-28T00:36:12;9.57;;;7.85;;
41653;SDS011;68687;52.030;7.110;2023-04-28T00:38:37;14.77;;;7.30;;
41653;SDS011;68687;52.030;7.110;2023-04-28T00:41:03;12.82;;;7.30;;
41653;SDS011;68687;52.030;7.110;2023-04-28T00:43:29;14.82;;;8.38;;
41653;SDS011;68687;52.030;7.110;2023-04-28T00:45:58;8.32;;;6.95;;
41653;SDS011;68687;52.030;7.110;2023-04-28T00:48:26;10.00;;;7.47;;
41653;SDS011;68687;52.030;7.110;2023-04-28T00:50:53;9.50;;;7.15;;
41653;SDS011;68687;52.030;7.110;2023-04-28T00:53:21;11.90;;;7.65;;
41653;SDS011;68687;52.030;7.110;2023-04-28T00:55:47;9.98;;;7.47;;
41653;SDS011;68687;52.030;7.110;2023-04-28T00:58:14;14.15;;;7.38;;
41653;SDS011;68687;52.030;7.110;2023-04-28T01:00:40;9.80;;;7.13;;
41653;SDS011;68687;52.030;7.110;2023-04-28T01:03:17;17.95;;;7.68;;
41653;SDS011;68687;52.030;7.110;2023-04-28T01:05:43;8.23;;;7.25;;
41653;SDS011;68687;52.030;7.110;2023-04-28T01:08:08;7.78;;;6.93;;
41653;SDS011;68687;52.030;7.110;2023-04-28T01:10:34;14.52;;;7.53;;
41653;SDS011;68687;52.030;7.110;2023-04-28T01:12:59;8.57;;;7.47;;
41653;SDS011;68687;52.030;7.110;2023-04-28T01:15:24;12.13;;;7.40;;
41653;SDS011;68687;52.030;7.110;2023-04-28T01:17:50;14.13;;;7.72;;
41653;SDS011;68687;52.030;7.110;2023-04-28T01:20:19;14.48;;;8.00;;
41653;SDS011;68687;52.030;7.110;2023-04-28T01:22:44;9.43;;;7.88;;
41653;SDS011;68687;52.030;7.110;2023-04-28T01:25:13;11.60;;;8.20;;
41653;SDS011;68687;52.030;7.110;2023-04-28T01:27:38;12.43;;;8.23;;
41653;SDS011;68687;52.030;7.110;2023-04-28T01:30:04;10.60;;;7.63;;
41653;SDS011;68687;52.030;7.110;2023-04-28T01:32:30;9.52;;;7.70;;
41653;SDS011;68687;52.030;7.110;2023-04-28T01:34:55;13.85;;;7.90;;
41653;SDS011;68687;52.030;7.110;2023-04-28T01:37:21;14.82;;;7.22;;
41653;SDS011;68687;52.030;7.110;2023-04-28T01:39:46;12.82;;;7.95;;
41653;SDS011;68687;52.030;7.110;2023-04-28T01:42:11;15.05;;;8.68;;
41653;SDS011;68687;52.030;7.110;2023-04-28T01:44:37;10.52;;;7.55;;
41653;SDS011;68687;52.030;7.110;2023-04-28T01:47:02;12.63;;;8.48;;
41653;SDS011;68687;52.030;7.110;2023-04-28T01:49:27;16.20;;;8.35;;
41653;SDS011;68687;52.030;7.110;2023-04-28T01:51:52;13.00;;;8.38;;
41653;SDS011;68687;52.030;7.110;2023-04-28T01:54:23;11.88;;;8.43;;
41653;SDS011;68687;52.030;7.110;2023-04-28T01:56:49;11.30;;;8.30;;
41653;SDS011;68687;52.030;7.110;2023-04-28T01:59:14;12.90;;;8.45;;
41653;SDS011;68687;52.030;7.110;2023-04-28T02:01:40;14.07;;;8.88;;
41653;SDS011;68687;52.030;7.110;2023-04-28T02:04:08;16.65;;;9.73;;
41653;SDS011;68687;52.030;7.110;2023-04-28T02:06:33;15.88;;;8.85;;
41653;SDS011;68687;52.030;7.110;2023-04-28T02:08:58;11.65;;;8.32;;
41653;SDS011;68687;52.030;7.110;2023-04-28T02:11:24;12.52;;;8.43;;
41653;SDS011;68687;52.030;7.110;2023-04-28T02:13:49;11.73;;;8.40;;
41653;SDS011;68687;52.030;7.110;2023-04-28T02:16:18;11.43;;;8.55;;
41653;SDS011;68687;52.030;7.110;2023-04-28T02:18:43;16.08;;;8.30;;
41653;SDS011;68687;52.030;7.110;2023-04-28T02:21:09;14.23;;;8.35;;
41653;SDS011;68687;52.030;7.110;2023-04-28T02:23:35;13.23;;;8.27;;
41653;SDS011;68687;52.030;7.110;2023-04-28T02:26:01;13.20;;;7.90;;
41653;SDS011;68687;52.030;7.110;2023-04-28T02:28:27;15.35;;;8.13;;
41653;SDS011;68687;52.030;7.110;2023-04-28T02:31:01;13.65;;;8.55;;
41653;SDS011;68687;52.030;7.110;2023-04-28T02:33:31;17.60;;;8.18;;
41653;SDS011;68687;52.030;7.110;2023-04-28T02:35:59;13.40;;;8.00;;
41653;SDS011;68687;52.030;7.110;2023-04-28T02:38:28;11.70;;;7.55;;
41653;SDS011;68687;52.030;7.110;2023-04-28T02:41:00;12.23;;;9.18;;
41653;SDS011;68687;52.030;7.110;2023-04-28T02:43:30;11.30;;;8.90;;
41653;SDS011;68687;52.030;7.110;2023-04-28T02:45:56;13.57;;;8.95;;
41653;SDS011;68687;52.030;7.110;2023-04-28T02:48:22;13.32;;;8.60;;
41653;SDS011;68687;52.030;7.110;2023-04-28T02:50:48;16.30;;;8.45;;
41653;SDS011;68687;52.030;7.110;2023-04-28T02:53:13;10.50;;;7.55;;
41653;SDS011;68687;52.030;7.110;2023-04-28T02:55:39;9.38;;;7.72;;
41653;SDS011;68687;52.030;7.110;2023-04-28T02:58:07;14.02;;;7.78;;
41653;SDS011;68687;52.030;7.110;2023-04-28T03:00:32;17.08;;;8.60;;
41653;SDS011;68687;52.030;7.110;2023-04-28T03:02:58;12.07;;;9.25;;
41653;SDS011;68687;52.030;7.110;2023-04-28T03:05:23;10.90;;;8.35;;
41653;SDS011;68687;52.030;7.110;2023-04-28T03:07:48;12.95;;;8.73;;
41653;SDS011;68687;52.030;7.110;2023-04-28T03:10:14;9.77;;;8.07;;
41653;SDS011;68687;52.030;7.110;2023-04-28T03:12:45;10.18;;;8.00;;
41653;SDS011;68687;52.030;7.110;2023-04-28T03:15:11;12.07;;;8.88;;
41653;SDS011;68687;52.030;7.110;2023-04-28T03:17:36;14.15;;;8.65;;
41653;SDS011;68687;52.030;7.110;2023-04-28T03:20:05;13.82;;;10.60;;
41653;SDS011;68687;52.030;7.110;2023-04-28T03:22:32;13.40;;;9.40;;
41653;SDS011;68687;52.030;7.110;2023-04-28T03:25:00;13.73;;;10.07;;
41653;SDS011;68687;52.030;7.110;2023-04-28T03:27:26;12.60;;;9.35;;
41653;SDS011;68687;52.030;7.110;2023-04-28T03:29:51;12.18;;;9.02;;
41653;SDS011;68687;52.030;7.110;2023-04-28T03:32:17;14.25;;;10.18;;
41653;SDS011;68687;52.030;7.110;2023-04-28T03:34:42;13.20;;;9.52;;
41653;SDS011;68687;52.030;7.110;2023-04-28T03:37:07;14.48;;;11.02;;
41653;SDS011;68687;52.030;7.110;2023-04-28T03:39:32;14.77;;;9.93;;
41653;SDS011;68687;52.030;7.110;2023-04-28T03:41:58;14.32;;;10.43;;
41653;SDS011;68687;52.030;7.110;2023-04-28T03:44:23;15.65;;;9.80;;
41653;SDS011;68687;52.030;7.110;2023-04-28T03:46:48;17.50;;;9.60;;
41653;SDS011;68687;52.030;7.110;2023-04-28T03:49:14;15.38;;;10.15;;
41653;SDS011;68687;52.030;7.110;2023-04-28T03:51:40;11.98;;;9.30;;
41653;SDS011;68687;52.030;7.110;2023-04-28T03:54:08;13.30;;;10.10;;
41653;SDS011;68687;52.030;7.110;2023-04-28T03:56:37;12.60;;;9.15;;
41653;SDS011;68687;52.030;7.110;2023-04-28T03:59:02;13.00;;;9.15;;
41653;SDS011;68687;52.030;7.110;2023-04-28T04:01:30;16.65;;;10.38;;
41653;SDS011;68687;52.030;7.110;2023-04-28T04:03:56;13.75;;;9.50;;
41653;SDS011;68687;52.030;7.110;2023-04-28T04:06:21;15.82;;;10.20;;
41653;SDS011;68687;52.030;7.110;2023-04-28T04:08:49;15.60;;;9.60;;
41653;SDS011;68687;52.030;7.110;2023-04-28T04:11:15;15.05;;;10.05;;
41653;SDS011;68687;52.030;7.110;2023-04-28T04:13:40;16.55;;;10.55;;
41653;SDS011;68687;52.030;7.110;2023-04-28T04:16:05;15.63;;;10.02;;
41653;SDS011;68687;52.030;7.110;2023-04-28T04:18:31;20.35;;;10.82;;
41653;SDS011;68687;52.030;7.110;2023-04-28T04:20:56;22.08;;;11.07;;
41653;SDS011;68687;52.030;7.110;2023-04-28T04:23:25;18.25;;;10.52;;
41653;SDS011;68687;52.030;7.110;2023-04-28T04:25:50;20.90;;;10.90;;
41653;SDS011;68687;52.030;7.110;2023-04-28T04:28:15;17.83;;;11.70;;
41653;SDS011;68687;52.030;7.110;2023-04-28T04:30:44;19.15;;;12.68;;
41653;SDS011;68687;52.030;7.110;2023-04-28T04:33:09;17.80;;;10.63;;
41653;SDS011;68687;52.030;7.110;2023-04-28T04:35:34;15.25;;;11.27;;
41653;SDS011;68687;52.030;7.110;2023-04-28T04:38:00;24.00;;;11.18;;
41653;SDS011;68687;52.030;7.110;2023-04-28T04:40:25;23.60;;;12.13;;
41653;SDS011;68687;52.030;7.110;2023-04-28T04:42:57;22.42;;;12.32;;
41653;SDS011;68687;52.030;7.110;2023-04-28T04:45:22;18.35;;;11.43;;
41653;SDS011;68687;52.030;7.110;2023-04-28T04:47:51;17.80;;;11.25;;
41653;SDS011;68687;52.030;7.110;2023-04-28T04:50:17;18.27;;;11.18;;
41653;SDS011;68687;52.030;7.110;2023-04-28T04:52:42;22.90;;;10.82;;
41653;SDS011;68687;52.030;7.110;2023-04-28T04:55:08;21.90;;;11.23;;
41653;SDS011;68687;52.030;7.110;2023-04-28T04:57:35;17.60;;;11.27;;
41653;SDS011;68687;52.030;7.110;2023-04-28T05:00:00;21.83;;;11.15;;
41653;SDS011;68687;52.030;7.110;2023-04-28T05:02:29;18.83;;;11.75;;
41653;SDS011;68687;52.030;7.110;2023-04-28T05:04:54;15.75;;;11.18;;
41653;SDS011;68687;52.030;7.110;2023-04-28T05:07:19;18.00;;;11.38;;
41653;SDS011;68687;52.030;7.110;2023-04-28T05:09:45;16.63;;;10.85;;
41653;SDS011;68687;52.030;7.110;2023-04-28T05:12:10;22.50;;;13.23;;
41653;SDS011;68687;52.030;7.110;2023-04-28T05:14:35;23.52;;;12.10;;
41653;SDS011;68687;52.030;7.110;2023-04-28T05:17:01;23.08;;;12.23;;
41653;SDS011;68687;52.030;7.110;2023-04-28T05:19:26;19.25;;;11.88;;
41653;SDS011;68687;52.030;7.110;2023-04-28T05:21:52;19.55;;;11.32;;
41653;SDS011;68687;52.030;7.110;2023-04-28T05:24:20;19.92;;;11.48;;
41653;SDS011;68687;52.030;7.110;2023-04-28T05:26:58;18.52;;;11.15;;
41653;SDS011;68687;52.030;7.110;2023-04-28T05:31:57;22.60;;;12.73;;
41653;SDS011;68687;52.030;7.110;2023-04-28T05:34:22;21.67;;;12.63;;
41653;SDS011;68687;52.030;7.110;2023-04-28T05:36:48;20.15;;;12.90;;
41653;SDS011;68687;52.030;7.110;2023-04-28T05:39:13;17.85;;;12.45;;
41653;SDS011;68687;52.030;7.110;2023-04-28T05:41:42;28.70;;;14.65;;
41653;SDS011;68687;52.030;7.110;2023-04-28T05:44:07;22.63;;;14.45;;
41653;SDS011;68687;52.030;7.110;2023-04-28T05:46:33;27.15;;;14.30;;
41653;SDS011;68687;52.030;7.110;2023-04-28T05:48:58;26.13;;;12.77;;
41653;SDS011;68687;52.030;7.110;2023-04-28T05:51:23;21.27;;;13.45;;
41653;SDS011;68687;52.030;7.110;2023-04-28T05:53:49;22.17;;;13.23;;
41653;SDS011;68687;52.030;7.110;2023-04-28T05:56:14;22.85;;;14.32;;
41653;SDS011;68687;52.030;7.110;2023-04-28T05:58:40;25.65;;;14.27;;
41653;SDS011;68687;52.030;7.110;2023-04-28T06:01:08;19.27;;;13.10;;
41653;SDS011;68687;52.030;7.110;2023-04-28T06:03:36;23.45;;;13.73;;
41653;SDS011;68687;52.030;7.110;2023-04-28T06:06:01;21.95;;;13.82;;
41653;SDS011;68687;52.030;7.110;2023-04-28T06:08:27;23.92;;;14.77;;
41653;SDS011;68687;52.030;7.110;2023-04-28T06:10:55;22.52;;;14.05;;
41653;SDS011;68687;52.030;7.110;2023-04-28T06:13:23;22.08;;;14.20;;
41653;SDS011;68687;52.030;7.110;2023-04-28T06:15:48;29.10;;;14.40;;
41653;SDS011;68687;52.030;7.110;2023-04-28T06:18:14;19.85;;;14.13;;
41653;SDS011;68687;52.030;7.110;2023-04-28T06:20:42;22.33;;;14.07;;
41653;SDS011;68687;52.030;7.110;2023-04-28T06:23:07;20.25;;;13.85;;
41653;SDS011;68687;52.030;7.110;2023-04-28T06:25:33;17.73;;;13.15;;
41653;SDS011;68687;52.030;7.110;2023-04-28T06:28:00;27.30;;;15.43;;
41653;SDS011;68687;52.030;7.110;2023-04-28T06:30:28;24.67;;;14.98;;
41653;SDS011;68687;52.030;7.110;2023-04-28T06:32:54;22.45;;;14.10;;
41653;SDS011;68687;52.030;7.110;2023-04-28T06:35:21;22.48;;;13.73;;
41653;SDS011;68687;52.030;7.110;2023-04-28T06:37:47;22.95;;;14.02;;
41653;SDS011;68687;52.030;7.110;2023-04-28T06:40:12;24.10;;;14.52;;
41653;SDS011;68687;52.030;7.110;2023-04-28T06:42:38;19.75;;;13.55;;
41653;SDS011;68687;52.030;7.110;2023-04-28T06:45:03;21.77;;;13.20;;
41653;SDS011;68687;52.030;7.110;2023-04-28T06:47:28;20.83;;;14.15;;
41653;SDS011;68687;52.030;7.110;2023-04-28T06:49:57;21.98;;;13.77;;
41653;SDS011;68687;52.030;7.110;2023-04-28T06:52:22;20.85;;;13.48;;
41653;SDS011;68687;52.030;7.110;2023-04-28T06:54:48;26.77;;;14.35;;
41653;SDS011;68687;52.030;7.110;2023-04-28T06:57:14;21.05;;;13.80;;
41653;SDS011;68687;52.030;7.110;2023-04-28T06:59:40;18.27;;;12.35;;
41653;SDS011;68687;52.030;7.110;2023-04-28T07:02:14;18.20;;;13.02;;
41653;SDS011;68687;52.030;7.110;2023-04-28T07:04:42;21.27;;;14.25;;
41653;SDS011;68687;52.030;7.110;2023-04-28T07:07:10;20.45;;;13.10;;
41653;SDS011;68687;52.030;7.110;2023-04-28T07:09:37;21.80;;;13.18;;
41653;SDS011;68687;52.030;7.110;2023-04-28T07:12:02;21.05;;;13.52;;
41653;SDS011;68687;52.030;7.110;2023-04-28T07:14:28;18.45;;;12.75;;
41653;SDS011;68687;52.030;7.110;2023-04-28T07:16:54;22.63;;;13.95;;
41653;SDS011;68687;52.030;7.110;2023-04-28T07:19:19;25.15;;;13.40;;
41653;SDS011;68687;52.030;7.110;2023-04-28T07:21:44;20.77;;;13.77;;
41653;SDS011;68687;52.030;7.110;2023-04-28T07:24:10;21.80;;;13.45;;
41653;SDS011;68687;52.030;7.110;2023-04-28T07:26:35;18.83;;;12.93;;
41653;SDS011;68687;52.030;7.110;2023-04-28T07:29:03;19.13;;;12.93;;
41653;SDS011;68687;52.030;7.110;2023-04-28T07:31:28;21.48;;;14.65;;
41653;SDS011;68687;52.030;7.110;2023-04-28T07:33:57;17.80;;;13.13;;
41653;SDS011;68687;52.030;7.110;2023-04-28T07:36:22;23.80;;;13.48;;
41653;SDS011;68687;52.030;7.110;2023-04-28T07:38:47;26.60;;;14.90;;
41653;SDS011;68687;52.030;7.110;2023-04-28T07:41:13;20.17;;;14.02;;
41653;SDS011;68687;52.030;7.110;2023-04-28T07:43:38;22.88;;;14.07;;
41653;SDS011;68687;52.030;7.110;2023-04-28T07:46:05;21.52;;;14.85;;
41653;SDS011;68687;52.030;7.110;2023-04-28T07:48:41;22.80;;;15.52;;
41653;SDS011;68687;52.030;7.110;2023-04-28T07:51:09;28.27;;;16.80;;
41653;SDS011;68687;52.030;7.110;2023-04-28T07:53:35;27.35;;;15.95;;
41653;SDS011;68687;52.030;7.110;2023-04-28T07:56:00;23.40;;;15.75;;
41653;SDS011;68687;52.030;7.110;2023-04-28T07:58:25;27.40;;;15.85;;
41653;SDS011;68687;52.030;7.110;2023-04-28T08:00:54;27.13;;;16.55;;
41653;SDS011;68687;52.030;7.110;2023-04-28T08:03:19;25.40;;;16.90;;
41653;SDS011;68687;52.030;7.110;2023-04-28T08:05:48;25.67;;;17.35;;
41653;SDS011;68687;52.030;7.110;2023-04-28T08:08:13;29.17;;;16.67;;
41653;SDS011;68687;52.030;7.110;2023-04-28T08:10:39;25.35;;;16.25;;
41653;SDS011;68687;52.030;7.110;2023-04-28T08:13:06;27.27;;;17.70;;
41653;SDS011;68687;52.030;7.110;2023-04-28T08:15:31;33.45;;;18.00;;
41653;SDS011;68687;52.030;7.110;2023-04-28T08:17:56;22.65;;;15.70;;
41653;SDS011;68687;52.030;7.110;2023-04-28T08:20:22;29.75;;;16.88;;
41653;SDS011;68687;52.030;7.110;2023-04-28T08:22:47;26.42;;;17.58;;
41653;SDS011;68687;52.030;7.110;2023-04-28T08:25:15;24.55;;;16.58;;
41653;SDS011;68687;52.030;7.110;2023-04-28T08:27:42;23.05;;;17.52;;
41653;SDS011;68687;52.030;7.110;2023-04-28T08:30:07;26.73;;;17.25;;
41653;SDS011;68687;52.030;7.110;2023-04-28T08:32:36;30.15;;;18.52;;
41653;SDS011;68687;52.030;7.110;2023-04-28T08:35:04;28.80;;;16.67;;
41653;SDS011;68687;52.030;7.110;2023-04-28T08:37:31;26.63;;;18.63;;
41653;SDS011;68687;52.030;7.110;2023-04-28T08:40:02;27.67;;;16.88;;
41653;SDS011;68687;52.030;7.110;2023-04-28T08:42:36;30.05;;;18.85;;
41653;SDS011;68687;52.030;7.110;2023-04-28T08:45:02;33.45;;;18.83;;
41653;SDS011;68687;52.030;7.110;2023-04-28T08:47:33;28.02;;;17.60;;
41653;SDS011;68687;52.030;7.110;2023-04-28T08:50:03;33.70;;;17.70;;
41653;SDS011;68687;52.030;7.110;2023-04-28T08:52:30;26.70;;;17.27;;
41653;SDS011;68687;52.030;7.110;2023-04-28T08:55:07;30.13;;;17.63;;
41653;SDS011;68687;52.030;7.110;2023-04-28T09:00:15;28.95;;;19.05;;
41653;SDS011;68687;52.030;7.110;2023-04-28T09:02:41;26.08;;;17.38;;
41653;SDS011;68687;52.030;7.110;2023-04-28T09:05:10;26.70;;;17.67;;
41653;SDS011;68687;52.030;7.110;2023-04-28T09:07:36;27.02;;;17.65;;
41653;SDS011;68687;52.030;7.110;2023-04-28T09:13:00;22.00;;;15.77;;
41653;SDS011;68687;52.030;7.110;2023-04-28T09:15:35;27.70;;;17.98;;
41653;SDS011;68687;52.030;7.110;2023-04-28T09:18:02;26.05;;;17.20;;
41653;SDS011;68687;52.030;7.110;2023-04-28T09:20:31;28.73;;;18.27;;
41653;SDS011;68687;52.030;7.110;2023-04-28T09:25:54;23.55;;;16.48;;
41653;SDS011;68687;52.030;7.110;2023-04-28T09:28:23;26.55;;;17.80;;
41653;SDS011;68687;52.030;7.110;2023-04-28T09:30:48;22.80;;;15.73;;
41653;SDS011;68687;52.030;7.110;2023-04-28T09:33:16;29.83;;;16.83;;
41653;SDS011;68687;52.030;7.110;2023-04-28T09:35:42;26.23;;;16.00;;
41653;SDS011;68687;52.030;7.110;2023-04-28T09:38:09;20.77;;;16.08;;
41653;SDS011;68687;52.030;7.110;2023-04-28T09:40:54;22.27;;;14.52;;
41653;SDS011;68687;52.030;7.110;2023-04-28T09:43:23;26.17;;;15.07;;
41653;SDS011;68687;52.030;7.110;2023-04-28T09:45:50;23.98;;;15.55;;
41653;SDS011;68687;52.030;7.110;2023-04-28T09:48:27;22.17;;;14.85;;
41653;SDS011;68687;52.030;7.110;2023-04-28T09:50:57;19.92;;;14.95;;
41653;SDS011;68687;52.030;7.110;2023-04-28T09:53:24;19.45;;;15.30;;
41653;SDS011;68687;52.030;7.110;2023-04-28T09:55:51;20.02;;;14.75;;
41653;SDS011;68687;52.030;7.110;2023-04-28T09:58:20;17.83;;;13.70;;
41653;SDS011;68687;52.030;7.110;2023-04-28T10:01:05;20.05;;;13.80;;
41653;SDS011;68687;52.030;7.110;2023-04-28T10:03:41;19.38;;;14.35;;
41653;SDS011;68687;52.030;7.110;2023-04-28T10:06:08;19.77;;;15.27;;
41653;SDS011;68687;52.030;7.110;2023-04-28T10:08:33;24.20;;;15.20;;
41653;SDS011;68687;52.030;7.110;2023-04-28T10:10:59;17.63;;;13.68;;
41653;SDS011;68687;52.030;7.110;2023-04-28T10:13:25;22.13;;;15.38;;
41653;SDS011;68687;52.030;7.110;2023-04-28T10:15:51;20.88;;;15.55;;
41653;SDS011;68687;52.030;7.110;2023-04-28T10:18:25;25.77;;;16.85;;
41653;SDS011;68687;52.030;7.110;2023-04-28T10:20:57;22.73;;;15.90;;
41653;SDS011;68687;52.030;7.110;2023-04-28T10:25:58;24.60;;;16.67;;
41653;SDS011;68687;52.030;7.110;2023-04-28T10:28:27;22.58;;;17.63;;
41653;SDS011;68687;52.030;7.110;2023-04-28T10:31:08;24.38;;;19.45;;
41653;SDS011;68687;52.030;7.110;2023-04-28T10:33:41;32.25;;;18.92;;
41653;SDS011;68687;52.030;7.110;2023-04-28T10:36:07;28.13;;;20.70;;
41653;SDS011;68687;52.030;7.110;2023-04-28T10:38:33;25.27;;;20.65;;
41653;SDS011;68687;52.030;7.110;2023-04-28T10:41:00;24.55;;;19.95;;
41653;SDS011;68687;52.030;7.110;2023-04-28T10:56:08;28.20;;;21.10;;
41653;SDS011;68687;52.030;7.110;2023-04-28T10:58:38;24.67;;;20.00;;
41653;SDS011;68687;52.030;7.110;2023-04-28T11:06:20;26.45;;;20.42;;
41653;SDS011;68687;52.030;7.110;2023-04-28T11:08:59;26.77;;;20.33;;
41653;SDS011;68687;52.030;7.110;2023-04-28T11:11:26;27.73;;;20.50;;
41653;SDS011;68687;52.030;7.110;2023-04-28T11:14:34;33.23;;;21.53;;
41653;SDS011;68687;52.030;7.110;2023-04-28T11:16:59;28.60;;;20.95;;
41653;SDS011;68687;52.030;7.110;2023-04-28T11:19:30;31.52;;;22.00;;
41653;SDS011;68687;52.030;7.110;2023-04-28T11:21:58;28.77;;;21.45;;
41653;SDS011;68687;52.030;7.110;2023-04-28T11:24:29;28.58;;;21.42;;
41653;SDS011;68687;52.030;7.110;2023-04-28T11:26:57;28.38;;;22.48;;
41653;SDS011;68687;52.030;7.110;2023-04-28T11:29:36;32.10;;;24.23;;
41653;SDS011;68687;52.030;7.110;2023-04-28T11:32:03;36.53;;;23.85;;
41653;SDS011;68687;52.030;7.110;2023-04-28T11:34:29;35.45;;;26.38;;
41653;SDS011;68687;52.030;7.110;2023-04-28T11:36:55;33.85;;;25.60;;
41653;SDS011;68687;52.030;7.110;2023-04-28T11:39:35;36.03;;;26.92;;
41653;SDS011;68687;52.030;7.110;2023-04-28T11:42:01;38.00;;;27.45;;
41653;SDS011;68687;52.030;7.110;2023-04-28T11:44:40;32.55;;;26.73;;
41653;SDS011;68687;52.030;7.110;2023-04-28T11:47:06;38.72;;;26.77;;
41653;SDS011;68687;52.030;7.110;2023-04-28T11:49:40;42.03;;;26.88;;
41653;SDS011;68687;52.030;7.110;2023-04-28T11:52:13;39.65;;;30.10;;
41653;SDS011;68687;52.030;7.110;2023-04-28T11:54:39;40.88;;;30.42;;
41653;SDS011;68687;52.030;7.110;2023-04-28T11:57:08;36.05;;;28.45;;
41653;SDS011;68687;52.030;7.110;2023-04-28T11:59:45;36.42;;;26.50;;
41653;SDS011;68687;52.030;7.110;2023-04-28T12:02:29;31.77;;;25.35;;
41653;SDS011;68687;52.030;7.110;2023-04-28T12:04:55;32.65;;;26.65;;
41653;SDS011;68687;52.030;7.110;2023-04-28T12:07:20;33.17;;;27.65;;
41653;SDS011;68687;52.030;7.110;2023-04-28T12:09:47;33.47;;;24.80;;
41653;SDS011;68687;52.030;7.110;2023-04-28T12:12:33;27.67;;;23.50;;
41653;SDS011;68687;52.030;7.110;2023-04-28T12:14:59;27.00;;;21.02;;
41653;SDS011;68687;52.030;7.110;2023-04-28T12:20:33;30.42;;;22.27;;
41653;SDS011;68687;52.030;7.110;2023-04-28T12:23:00;30.65;;;21.55;;
41653;SDS011;68687;52.030;7.110;2023-04-28T12:25:26;31.00;;;23.92;;
41653;SDS011;68687;52.030;7.110;2023-04-28T12:28:01;34.05;;;25.38;;
41653;SDS011;68687;52.030;7.110;2023-04-28T12:30:35;36.90;;;25.92;;
41653;SDS011;68687;52.030;7.110;2023-04-28T12:33:21;39.28;;;28.23;;
41653;SDS011;68687;52.030;7.110;2023-04-28T12:35:51;47.03;;;32.97;;
41653;SDS011;68687;52.030;7.110;2023-04-28T12:38:24;55.92;;;37.13;;
41653;SDS011;68687;52.030;7.110;2023-04-28T12:40:54;54.25;;;37.55;;
41653;SDS011;68687;52.030;7.110;2023-04-28T12:43:19;56.60;;;36.28;;
41653;SDS011;68687;52.030;7.110;2023-04-28T12:45:50;59.70;;;38.90;;
41653;SDS011;68687;52.030;7.110;2023-04-28T12:48:19;61.38;;;39.17;;
41653;SDS011;68687;52.030;7.110;2023-04-28T12:50:46;54.63;;;37.30;;
41653;SDS011;68687;52.030;7.110;2023-04-28T12:53:11;57.35;;;38.42;;
41653;SDS011;68687;52.030;7.110;2023-04-28T12:55:36;58.47;;;36.92;;
41653;SDS011;68687;52.030;7.110;2023-04-28T12:58:05;58.80;;;38.10;;
41653;SDS011;68687;52.030;7.110;2023-04-28T13:00:30;63.10;;;39.92;;
41653;SDS011;68687;52.030;7.110;2023-04-28T13:02:56;65.25;;;40.35;;
41653;SDS011;68687;52.030;7.110;2023-04-28T13:05:25;65.78;;;41.17;;
41653;SDS011;68687;52.030;7.110;2023-04-28T13:07:50;56.63;;;39.08;;
41653;SDS011;68687;52.030;7.110;2023-04-28T13:10:17;61.95;;;38.63;;
41653;SDS011;68687;52.030;7.110;2023-04-28T13:12:51;65.57;;;40.80;;
41653;SDS011;68687;52.030;7.110;2023-04-28T13:15:16;57.75;;;36.88;;
41653;SDS011;68687;52.030;7.110;2023-04-28T13:17:44;58.75;;;38.13;;
41653;SDS011;68687;52.030;7.110;2023-04-28T13:20:10;57.95;;;38.65;;
41653;SDS011;68687;52.030;7.110;2023-04-28T13:22:35;59.33;;;39.38;;
41653;SDS011;68687;52.030;7.110;2023-04-28T13:25:10;61.60;;;39.60;;
41653;SDS011;68687;52.030;7.110;2023-04-28T13:27:38;61.70;;;39.43;;
41653;SDS011;68687;52.030;7.110;2023-04-28T13:30:07;58.55;;;38.67;;
41653;SDS011;68687;52.030;7.110;2023-04-28T13:32:35;53.45;;;36.70;;
41653;SDS011;68687;52.030;7.110;2023-04-28T13:35:01;59.60;;;36.63;;
41653;SDS011;68687;52.030;7.110;2023-04-28T13:37:26;49.58;;;33.42;;
41653;SDS011;68687;52.030;7.110;2023-04-28T13:39:51;43.70;;;31.25;;
41653;SDS011;68687;52.030;7.110;2023-04-28T13:42:20;46.13;;;31.73;;
41653;SDS011;68687;52.030;7.110;2023-04-28T13:44:48;44.65;;;31.40;;
41653;SDS011;68687;52.030;7.110;2023-04-28T13:47:13;49.28;;;32.72;;
41653;SDS011;68687;52.030;7.110;2023-04-28T13:49:39;41.97;;;30.42;;
41653;SDS011;68687;52.030;7.110;2023-04-28T13:52:04;38.45;;;28.42;;
41653;SDS011;68687;52.030;7.110;2023-04-28T13:54:30;38.95;;;27.40;;
41653;SDS011;68687;52.030;7.110;2023-04-28T13:56:55;36.60;;;25.13;;
41653;SDS011;68687;52.030;7.110;2023-04-28T13:59:21;29.13;;;22.85;;
41653;SDS011;68687;52.030;7.110;2023-04-28T14:01:46;26.20;;;20.38;;
41653;SDS011;68687;52.030;7.110;2023-04-28T14:04:14;24.17;;;19.88;;
41653;SDS011;68687;52.030;7.110;2023-04-28T14:06:40;29.60;;;21.13;;
41653;SDS011;68687;52.030;7.110;2023-04-28T14:09:06;27.45;;;20.45;;
41653;SDS011;68687;52.030;7.110;2023-04-28T14:11:31;28.67;;;20.98;;
41653;SDS011;68687;52.030;7.110;2023-04-28T14:13:57;23.30;;;18.38;;
41653;SDS011;68687;52.030;7.110;2023-04-28T14:16:22;27.60;;;19.55;;
41653;SDS011;68687;52.030;7.110;2023-04-28T14:18:54;25.35;;;20.17;;
41653;SDS011;68687;52.030;7.110;2023-04-28T14:21:19;24.00;;;19.00;;
41653;SDS011;68687;52.030;7.110;2023-04-28T14:23:44;24.77;;;19.38;;
41653;SDS011;68687;52.030;7.110;2023-04-28T14:26:10;27.08;;;19.55;;
41653;SDS011;68687;52.030;7.110;2023-04-28T14:28:35;24.70;;;18.42;;
41653;SDS011;68687;52.030;7.110;2023-04-28T14:31:02;24.55;;;18.98;;
41653;SDS011;68687;52.030;7.110;2023-04-28T14:33:33;26.33;;;19.13;;
41653;SDS011;68687;52.030;7.110;2023-04-28T14:36:01;27.73;;;20.08;;
41653;SDS011;68687;52.030;7.110;2023-04-28T14:38:27;30.77;;;21.90;;
41653;SDS011;68687;52.030;7.110;2023-04-28T14:40:54;28.92;;;21.13;;
41653;SDS011;68687;52.030;7.110;2023-04-28T14:43:19;27.95;;;21.40;;
41653;SDS011;68687;52.030;7.110;2023-04-28T14:45:44;30.27;;;21.80;;
41653;SDS011;68687;52.030;7.110;2023-04-28T14:48:10;26.55;;;20.77;;
41653;SDS011;68687;52.030;7.110;2023-04-28T14:50:35;31.40;;;20.25;;
41653;SDS011;68687;52.030;7.110;2023-04-28T14:53:07;25.65;;;19.17;;
41653;SDS011;68687;52.030;7.110;2023-04-28T14:55:32;26.38;;;19.95;;
41653;SDS011;68687;52.030;7.110;2023-04-28T14:57:58;26.50;;;19.70;;
41653;SDS011;68687;52.030;7.110;2023-04-28T15:00:23;27.02;;;19.25;;
41653;SDS011;68687;52.030;7.110;2023-04-28T15:02:48;25.88;;;19.13;;